Time;durP1;ratioP1;P1;durP2;ratioP2;P2;SDS_P1;SDS_P2;PMS_P1;PMS_P2;Temp;Humidity;BMP_temperature;BMP_pressure;BME280_temperature;BME280_humidity;BME280_pressure;Samples;Min_cycle;Max_cycle;Signal;HPM_P1;HPM_P2
2022/03/29 00:00:12;;;;;;;26.02;13.50;;;;;;;;;;4974922;28;20027;-65
2022/03/29 00:02:38;;;;;;;24.45;14.55;;;;;;;;;;4975125;28;20039;-65
2022/03/29 00:05:04;;;;;;;24.67;13.55;;;;;;;;;;4976561;28;20512;-65
2022/03/29 00:07:30;;;;;;;25.13;13.82;;;;;;;;;;4976066;28;20117;-65
2022/03/29 00:09:55;;;;;;;28.30;14.40;;;;;;;;;;4976505;28;20106;-65
2022/03/29 00:12:21;;;;;;;29.35;13.55;;;;;;;;;;4976144;28;20030;-65
2022/03/29 00:14:46;;;;;;;24.67;13.93;;;;;;;;;;4975397;28;20053;-65
2022/03/29 00:17:11;;;;;;;29.65;14.30;;;;;;;;;;4976059;28;20023;-65
2022/03/29 00:19:37;;;;;;;27.35;15.10;;;;;;;;;;4975272;28;20540;-64
2022/03/29 00:22:03;;;;;;;27.55;14.02;;;;;;;;;;4976151;28;20081;-65
2022/03/29 00:24:28;;;;;;;29.33;15.25;;;;;;;;;;4958224;28;20027;-65
2022/03/29 00:26:53;;;;;;;26.63;15.00;;;;;;;;;;4976574;28;20354;-65
2022/03/29 00:29:19;;;;;;;30.90;14.57;;;;;;;;;;4975517;28;20035;-65
2022/03/29 00:31:44;;;;;;;26.67;15.05;;;;;;;;;;4975069;28;20042;-65
2022/03/29 00:34:10;;;;;;;28.02;15.75;;;;;;;;;;4975351;28;20117;-65
2022/03/29 00:36:35;;;;;;;26.80;15.23;;;;;;;;;;4975834;28;20037;-65
2022/03/29 00:39:00;;;;;;;27.05;15.18;;;;;;;;;;4974845;28;20482;-65
2022/03/29 00:41:26;;;;;;;28.05;15.18;;;;;;;;;;4975240;28;20122;-64
2022/03/29 00:43:52;;;;;;;30.08;15.23;;;;;;;;;;4976129;28;20034;-65
2022/03/29 00:46:18;;;;;;;27.70;15.35;;;;;;;;;;4975798;28;20054;-65
2022/03/29 00:48:43;;;;;;;28.70;15.48;;;;;;;;;;4975690;28;20063;-65
2022/03/29 00:51:10;;;;;;;30.15;15.98;;;;;;;;;;4975414;28;20034;-66
2022/03/29 00:53:35;;;;;;;27.08;16.30;;;;;;;;;;4976176;28;20033;-65
2022/03/29 00:56:02;;;;;;;29.13;16.02;;;;;;;;;;4975627;28;20030;-65
2022/03/29 00:58:28;;;;;;;30.17;16.48;;;;;;;;;;4975132;28;20034;-65
2022/03/29 01:00:58;;;;;;;33.13;16.42;;;;;;;;;;4975752;28;20035;-64
2022/03/29 01:03:23;;;;;;;29.85;16.40;;;;;;;;;;4975090;28;20038;-65
2022/03/29 01:05:49;;;;;;;32.17;17.38;;;;;;;;;;4975442;28;20027;-65
2022/03/29 01:08:14;;;;;;;33.05;17.27;;;;;;;;;;4957480;28;20034;-65
2022/03/29 01:10:40;;;;;;;27.20;15.85;;;;;;;;;;4975166;28;20027;-65
2022/03/29 01:13:05;;;;;;;31.77;17.52;;;;;;;;;;4975228;28;20041;-64
2022/03/29 01:15:35;;;;;;;29.67;16.67;;;;;;;;;;4974496;28;20034;-65
2022/03/29 01:18:01;;;;;;;31.57;16.33;;;;;;;;;;4974991;28;20034;-64
2022/03/29 01:20:29;;;;;;;30.08;16.73;;;;;;;;;;4974367;28;20038;-65
2022/03/29 01:22:56;;;;;;;32.58;17.55;;;;;;;;;;4975258;28;20026;-65
2022/03/29 01:25:36;;;;;;;33.85;17.90;;;;;;;;;;4974110;28;20460;-65
2022/03/29 01:28:03;;;;;;;30.87;17.70;;;;;;;;;;4975317;28;20035;-65
2022/03/29 01:30:29;;;;;;;32.47;16.95;;;;;;;;;;4974288;28;20281;-65
2022/03/29 01:32:56;;;;;;;32.53;17.20;;;;;;;;;;4974749;28;20469;-65
2022/03/29 01:35:24;;;;;;;39.22;18.85;;;;;;;;;;4974223;28;20097;-65
2022/03/29 01:37:50;;;;;;;35.75;18.45;;;;;;;;;;4974901;28;20039;-65
2022/03/29 01:40:19;;;;;;;33.05;17.65;;;;;;;;;;4974258;28;20035;-65
2022/03/29 01:42:55;;;;;;;33.78;18.85;;;;;;;;;;4975079;28;20038;-65
2022/03/29 01:45:22;;;;;;;32.90;18.67;;;;;;;;;;4974035;28;20114;-65
2022/03/29 01:47:48;;;;;;;34.10;18.50;;;;;;;;;;4974738;28;20038;-65
2022/03/29 01:50:13;;;;;;;36.53;19.70;;;;;;;;;;4974083;28;20047;-65
2022/03/29 01:52:47;;;;;;;37.88;18.83;;;;;;;;;;4973519;28;20035;-64
2022/03/29 01:55:18;;;;;;;33.38;18.23;;;;;;;;;;4973649;28;20050;-65
2022/03/29 01:57:44;;;;;;;34.90;18.92;;;;;;;;;;4974231;28;20035;-65
2022/03/29 02:02:55;;;;;;;35.35;19.60;;;;;;;;;;4960045;28;20041;-65
2022/03/29 02:05:22;;;;;;;35.05;18.80;;;;;;;;;;4972490;28;20034;-66
2022/03/29 02:07:47;;;;;;;33.80;19.13;;;;;;;;;;4974072;28;20023;-65
2022/03/29 02:10:17;;;;;;;38.17;19.98;;;;;;;;;;4973713;28;20030;-67
2022/03/29 02:12:44;;;;;;;36.22;19.30;;;;;;;;;;4973945;28;20365;-65
2022/03/29 02:15:09;;;;;;;35.10;19.08;;;;;;;;;;4973799;28;20034;-65
2022/03/29 02:17:35;;;;;;;37.63;19.65;;;;;;;;;;4956186;28;20424;-65
2022/03/29 02:20:00;;;;;;;36.80;19.73;;;;;;;;;;4974240;28;20037;-66
2022/03/29 02:22:26;;;;;;;33.17;18.50;;;;;;;;;;4973684;28;20035;-66
2022/03/29 02:24:52;;;;;;;37.45;19.77;;;;;;;;;;4974344;28;20162;-66
2022/03/29 02:27:17;;;;;;;39.40;19.75;;;;;;;;;;4973801;28;20130;-66
2022/03/29 02:29:43;;;;;;;38.22;20.15;;;;;;;;;;4974182;28;20031;-66
2022/03/29 02:32:08;;;;;;;35.75;20.23;;;;;;;;;;4974309;28;20581;-65
2022/03/29 02:34:34;;;;;;;36.78;19.95;;;;;;;;;;4973436;28;20445;-65
2022/03/29 02:36:59;;;;;;;36.33;19.95;;;;;;;;;;4973921;28;20027;-65
2022/03/29 02:39:25;;;;;;;37.38;20.48;;;;;;;;;;4973161;28;20117;-63
2022/03/29 02:41:50;;;;;;;39.05;20.42;;;;;;;;;;4973655;28;20416;-65
2022/03/29 02:44:16;;;;;;;40.13;20.20;;;;;;;;;;4972923;28;20035;-65
2022/03/29 02:46:42;;;;;;;35.13;19.95;;;;;;;;;;4973410;28;20038;-64
2022/03/29 02:49:08;;;;;;;37.13;19.25;;;;;;;;;;4973602;28;20105;-64
2022/03/29 02:51:33;;;;;;;39.45;21.55;;;;;;;;;;4973111;28;20085;-65
2022/03/29 02:53:58;;;;;;;37.92;20.40;;;;;;;;;;4973690;28;20031;-65
2022/03/29 02:56:24;;;;;;;33.08;19.05;;;;;;;;;;4972592;28;20031;-66
2022/03/29 02:58:49;;;;;;;36.90;19.90;;;;;;;;;;4972215;28;20392;-65
2022/03/29 03:01:15;;;;;;;37.97;20.55;;;;;;;;;;4973474;28;20444;-65
2022/03/29 03:03:41;;;;;;;38.55;19.65;;;;;;;;;;4971621;28;20178;-65
2022/03/29 03:06:06;;;;;;;41.05;20.40;;;;;;;;;;4973070;28;20027;-65
2022/03/29 03:08:31;;;;;;;38.60;19.67;;;;;;;;;;4972710;28;20035;-65
2022/03/29 03:10:57;;;;;;;37.97;20.75;;;;;;;;;;4973378;28;20027;-66
2022/03/29 03:13:22;;;;;;;35.08;19.88;;;;;;;;;;4972504;28;20055;-66
2022/03/29 03:15:47;;;;;;;40.67;21.00;;;;;;;;;;4973231;28;20467;-64
2022/03/29 03:18:13;;;;;;;38.72;21.60;;;;;;;;;;4973006;28;20118;-65
2022/03/29 03:20:39;;;;;;;40.35;21.08;;;;;;;;;;4972678;28;20039;-65
2022/03/29 03:23:04;;;;;;;39.08;20.45;;;;;;;;;;4973554;28;20066;-65
2022/03/29 03:25:30;;;;;;;41.22;20.85;;;;;;;;;;4971082;28;20035;-65
2022/03/29 03:27:55;;;;;;;39.85;20.98;;;;;;;;;;4973493;28;20034;-65
2022/03/29 03:30:21;;;;;;;42.28;22.30;;;;;;;;;;4972677;28;20027;-65
2022/03/29 03:32:46;;;;;;;41.50;20.98;;;;;;;;;;4973105;28;20117;-65
2022/03/29 03:35:12;;;;;;;44.50;21.45;;;;;;;;;;4971652;28;20027;-64
2022/03/29 03:37:39;;;;;;;41.97;22.02;;;;;;;;;;4972728;28;20854;-65
2022/03/29 03:40:09;;;;;;;44.50;20.95;;;;;;;;;;4972995;28;20392;-65
2022/03/29 03:42:37;;;;;;;44.47;22.15;;;;;;;;;;4972624;28;20122;-65
2022/03/29 03:45:04;;;;;;;43.22;22.52;;;;;;;;;;4972922;28;20039;-65
2022/03/29 03:47:30;;;;;;;44.60;22.25;;;;;;;;;;4955746;28;20038;-65
2022/03/29 03:49:56;;;;;;;48.33;23.00;;;;;;;;;;4972861;28;20506;-65
2022/03/29 03:52:21;;;;;;;47.00;22.35;;;;;;;;;;4972422;28;20030;-66
2022/03/29 03:54:49;;;;;;;46.95;22.65;;;;;;;;;;4972995;28;20038;-65
2022/03/29 03:57:14;;;;;;;43.88;20.67;;;;;;;;;;4973347;28;20026;-65
2022/03/29 03:59:40;;;;;;;47.97;22.27;;;;;;;;;;4972284;28;20026;-64
2022/03/29 04:02:06;;;;;;;49.63;24.35;;;;;;;;;;4971732;28;20027;-64
2022/03/29 04:04:31;;;;;;;51.97;24.00;;;;;;;;;;4972101;28;20440;-65
2022/03/29 04:06:56;;;;;;;51.60;23.77;;;;;;;;;;4973039;28;20041;-65
2022/03/29 04:09:22;;;;;;;49.92;23.27;;;;;;;;;;4972277;28;20109;-65
2022/03/29 04:11:48;;;;;;;48.65;23.88;;;;;;;;;;4972712;28;20030;-65
2022/03/29 04:14:13;;;;;;;51.00;23.08;;;;;;;;;;4973086;28;20031;-65
2022/03/29 04:16:39;;;;;;;51.90;23.73;;;;;;;;;;4974300;28;20491;-65
2022/03/29 04:19:04;;;;;;;56.00;24.77;;;;;;;;;;4976532;28;20042;-65
2022/03/29 04:21:29;;;;;;;50.75;23.58;;;;;;;;;;4975600;28;20165;-64
2022/03/29 04:23:55;;;;;;;48.05;24.23;;;;;;;;;;4976211;28;20476;-65
2022/03/29 04:26:21;;;;;;;51.45;23.30;;;;;;;;;;4976026;28;20462;-65
2022/03/29 04:28:46;;;;;;;49.90;23.52;;;;;;;;;;4976482;28;20026;-65
2022/03/29 04:31:12;;;;;;;56.15;25.70;;;;;;;;;;4976188;28;20105;-65
2022/03/29 04:33:38;;;;;;;56.60;24.50;;;;;;;;;;4975586;28;20030;-65
2022/03/29 04:36:03;;;;;;;51.22;23.63;;;;;;;;;;4975852;28;20464;-65
2022/03/29 04:38:29;;;;;;;59.30;25.45;;;;;;;;;;4975495;28;20031;-65
2022/03/29 04:40:54;;;;;;;51.97;25.00;;;;;;;;;;4976175;28;20027;-65
2022/03/29 04:43:20;;;;;;;59.58;25.02;;;;;;;;;;4976171;28;20066;-64
2022/03/29 04:45:45;;;;;;;51.92;24.88;;;;;;;;;;4941970;28;20037;-65
2022/03/29 04:48:12;;;;;;;55.78;24.55;;;;;;;;;;4974849;28;20477;-65
2022/03/29 04:50:38;;;;;;;54.28;25.52;;;;;;;;;;4974957;28;20054;-65
2022/03/29 04:53:03;;;;;;;56.97;25.25;;;;;;;;;;4974714;28;20447;-64
2022/03/29 04:55:29;;;;;;;54.08;24.13;;;;;;;;;;4973971;28;20114;-65
2022/03/29 04:57:54;;;;;;;53.53;25.38;;;;;;;;;;4975558;28;20023;-65
2022/03/29 05:00:23;;;;;;;54.00;25.13;;;;;;;;;;4975802;28;20042;-65
2022/03/29 05:02:49;;;;;;;58.55;24.42;;;;;;;;;;4975724;28;20034;-65
2022/03/29 05:05:15;;;;;;;56.45;25.42;;;;;;;;;;4975605;28;20114;-64
2022/03/29 05:07:41;;;;;;;54.55;25.45;;;;;;;;;;4973754;28;20158;-64
2022/03/29 05:10:08;;;;;;;59.95;24.98;;;;;;;;;;4975406;28;20461;-64
2022/03/29 05:12:51;;;;;;;61.35;26.10;;;;;;;;;;4974847;28;20034;-64
2022/03/29 05:15:18;;;;;;;62.78;25.70;;;;;;;;;;4974145;28;20549;-64
2022/03/29 05:17:44;;;;;;;63.90;25.33;;;;;;;;;;4974811;28;20269;-64
2022/03/29 05:20:11;;;;;;;56.55;25.65;;;;;;;;;;4975323;28;20038;-64
2022/03/29 05:22:41;;;;;;;57.00;26.02;;;;;;;;;;4974665;28;20053;-64
2022/03/29 05:25:07;;;;;;;62.65;26.08;;;;;;;;;;4975434;28;20038;-65
2022/03/29 05:27:32;;;;;;;62.03;25.42;;;;;;;;;;4973459;28;20548;-64
2022/03/29 05:29:58;;;;;;;52.55;24.98;;;;;;;;;;4975151;28;20035;-65
2022/03/29 05:32:23;;;;;;;56.28;25.27;;;;;;;;;;4975167;28;20465;-64
2022/03/29 05:34:49;;;;;;;56.65;24.58;;;;;;;;;;4974176;28;20035;-64
2022/03/29 05:37:14;;;;;;;55.40;25.13;;;;;;;;;;4974939;28;20520;-65
2022/03/29 05:39:43;;;;;;;56.08;24.52;;;;;;;;;;4973948;28;20468;-65
2022/03/29 05:42:08;;;;;;;52.10;24.88;;;;;;;;;;4974866;28;20027;-65
2022/03/29 05:44:34;;;;;;;58.38;25.85;;;;;;;;;;4974167;28;20037;-65
2022/03/29 05:49:43;;;;;;;73.47;26.55;;;;;;;;;;4974089;28;20085;-65
2022/03/29 05:52:09;;;;;;;81.68;26.27;;;;;;;;;;4974441;28;20062;-65
2022/03/29 05:54:35;;;;;;;61.42;25.92;;;;;;;;;;4974240;28;20380;-65
2022/03/29 05:57:01;;;;;;;60.47;25.13;;;;;;;;;;4973269;28;20483;-64
2022/03/29 05:59:26;;;;;;;61.08;25.70;;;;;;;;;;4974344;28;20039;-67
2022/03/29 06:01:52;;;;;;;58.97;24.85;;;;;;;;;;4974558;28;20033;-65
2022/03/29 06:04:22;;;;;;;64.90;27.90;;;;;;;;;;4974491;28;20027;-64
2022/03/29 06:06:48;;;;;;;61.27;25.77;;;;;;;;;;4972539;28;20045;-65
2022/03/29 06:09:14;;;;;;;62.67;25.92;;;;;;;;;;4974589;28;20102;-65
2022/03/29 06:11:39;;;;;;;61.30;26.17;;;;;;;;;;4974026;28;20027;-65
2022/03/29 06:14:04;;;;;;;62.15;24.58;;;;;;;;;;4974501;28;20033;-65
2022/03/29 06:16:30;;;;;;;63.42;26.25;;;;;;;;;;4973352;28;20034;-65
2022/03/29 06:18:55;;;;;;;59.20;24.38;;;;;;;;;;4974259;28;20026;-65
2022/03/29 06:21:22;;;;;;;62.17;25.02;;;;;;;;;;4974288;28;20094;-65
2022/03/29 06:23:47;;;;;;;70.47;27.13;;;;;;;;;;4972348;28;20528;-65
2022/03/29 06:26:13;;;;;;;65.47;25.50;;;;;;;;;;4974065;28;20065;-64
2022/03/29 06:28:38;;;;;;;59.25;25.75;;;;;;;;;;4973407;28;20026;-64
2022/03/29 06:31:04;;;;;;;58.92;26.15;;;;;;;;;;4973829;28;20155;-66
2022/03/29 06:33:29;;;;;;;63.05;25.00;;;;;;;;;;4973637;28;20085;-65
2022/03/29 06:35:54;;;;;;;62.78;24.85;;;;;;;;;;4974138;28;20460;-65
2022/03/29 06:38:21;;;;;;;62.72;26.73;;;;;;;;;;4973504;28;20034;-65
2022/03/29 06:40:50;;;;;;;65.47;26.98;;;;;;;;;;4972939;28;20105;-65
2022/03/29 06:43:16;;;;;;;61.58;26.52;;;;;;;;;;4973812;28;20031;-65
2022/03/29 06:45:41;;;;;;;61.97;27.13;;;;;;;;;;4973057;28;20067;-65
2022/03/29 06:48:07;;;;;;;69.72;26.23;;;;;;;;;;4973763;28;20023;-65
2022/03/29 06:50:33;;;;;;;72.40;28.25;;;;;;;;;;4973141;28;20133;-65
2022/03/29 06:52:59;;;;;;;71.78;27.55;;;;;;;;;;4973670;28;20030;-65
2022/03/29 06:55:25;;;;;;;72.70;27.50;;;;;;;;;;4973726;28;20042;-65
2022/03/29 06:57:51;;;;;;;74.50;28.30;;;;;;;;;;4972902;28;20042;-65
2022/03/29 07:00:17;;;;;;;83.22;29.88;;;;;;;;;;4956236;28;20031;-65
2022/03/29 07:02:43;;;;;;;91.63;30.50;;;;;;;;;;4973030;28;20424;-65
2022/03/29 07:05:08;;;;;;;74.63;28.65;;;;;;;;;;4956188;28;20117;-65
2022/03/29 07:07:34;;;;;;;74.32;28.80;;;;;;;;;;4971359;28;20055;-65
2022/03/29 07:13:01;;;;;;;64.88;26.45;;;;;;;;;;4972723;28;20122;-65
2022/03/29 07:15:27;;;;;;;68.55;28.23;;;;;;;;;;4974595;28;20034;-65
2022/03/29 07:17:53;;;;;;;62.70;26.40;;;;;;;;;;4972914;28;20042;-64
2022/03/29 07:20:19;;;;;;;68.25;26.35;;;;;;;;;;4974331;28;20117;-64
2022/03/29 07:22:55;;;;;;;57.75;25.70;;;;;;;;;;4972558;28;20037;-64
2022/03/29 07:25:21;;;;;;;59.85;26.33;;;;;;;;;;4973443;28;20058;-64
2022/03/29 07:27:49;;;;;;;61.20;26.95;;;;;;;;;;4971491;28;20034;-65
2022/03/29 07:30:15;;;;;;;63.83;26.65;;;;;;;;;;4973329;28;20461;-65
2022/03/29 07:32:46;;;;;;;65.15;27.70;;;;;;;;;;4972541;28;20090;-66
2022/03/29 07:35:14;;;;;;;65.93;27.50;;;;;;;;;;4973290;28;20495;-66
2022/03/29 07:37:39;;;;;;;68.00;27.67;;;;;;;;;;4972437;28;20038;-66
2022/03/29 07:40:05;;;;;;;60.78;26.73;;;;;;;;;;4973751;28;20031;-64
2022/03/29 07:42:32;;;;;;;65.05;26.92;;;;;;;;;;4973246;28;20034;-64
2022/03/29 07:44:58;;;;;;;68.32;27.80;;;;;;;;;;4972949;28;20038;-65
2022/03/29 07:47:23;;;;;;;64.38;26.65;;;;;;;;;;4973140;28;20035;-65
2022/03/29 07:49:49;;;;;;;69.10;27.67;;;;;;;;;;4970897;28;20571;-65
2022/03/29 07:52:14;;;;;;;62.45;26.42;;;;;;;;;;4976622;28;20022;-65
2022/03/29 07:54:40;;;;;;;61.40;25.30;;;;;;;;;;4976357;28;20034;-64
2022/03/29 07:57:08;;;;;;;61.92;26.30;;;;;;;;;;4976733;28;20030;-64
2022/03/29 07:59:37;;;;;;;62.33;26.35;;;;;;;;;;4976185;28;20430;-66
2022/03/29 08:02:03;;;;;;;61.95;25.98;;;;;;;;;;4976934;28;20029;-64
2022/03/29 08:04:28;;;;;;;63.25;26.42;;;;;;;;;;4976700;28;20113;-66
2022/03/29 08:06:54;;;;;;;62.40;26.73;;;;;;;;;;4975796;28;20063;-66
2022/03/29 08:09:23;;;;;;;69.22;27.70;;;;;;;;;;4975515;28;20063;-65
2022/03/29 08:11:48;;;;;;;71.60;27.92;;;;;;;;;;4976108;28;20120;-65
2022/03/29 08:14:14;;;;;;;63.72;26.38;;;;;;;;;;4976733;28;20055;-65
2022/03/29 08:16:41;;;;;;;60.13;26.55;;;;;;;;;;4975844;28;20042;-65
2022/03/29 08:19:06;;;;;;;62.60;25.98;;;;;;;;;;4975205;28;20035;-65
2022/03/29 08:24:26;;;;;;;56.88;24.58;;;;;;;;;;4975854;28;20401;-65
2022/03/29 08:26:54;;;;;;;65.85;25.85;;;;;;;;;;4975330;28;20469;-65
2022/03/29 08:29:21;;;;;;;65.43;26.35;;;;;;;;;;4976160;28;20080;-65
2022/03/29 08:31:49;;;;;;;60.65;25.52;;;;;;;;;;4974371;28;20078;-66
2022/03/29 08:34:16;;;;;;;68.15;27.23;;;;;;;;;;4975973;28;20467;-66
2022/03/29 08:36:42;;;;;;;63.40;27.10;;;;;;;;;;4975267;28;20070;-65
2022/03/29 08:39:09;;;;;;;60.92;27.20;;;;;;;;;;4976081;28;20062;-65
2022/03/29 08:41:42;;;;;;;66.20;26.05;;;;;;;;;;4975836;28;20030;-65
2022/03/29 08:44:07;;;;;;;58.90;26.80;;;;;;;;;;4976162;28;20042;-65
2022/03/29 08:46:36;;;;;;;68.28;26.98;;;;;;;;;;4975722;28;20093;-65
2022/03/29 08:49:03;;;;;;;64.00;28.25;;;;;;;;;;4974060;28;20050;-65
2022/03/29 08:51:29;;;;;;;69.00;27.10;;;;;;;;;;4975956;28;20038;-65
2022/03/29 08:53:54;;;;;;;64.72;27.27;;;;;;;;;;4975595;28;20035;-65
2022/03/29 08:56:20;;;;;;;56.63;25.85;;;;;;;;;;4975730;28;20060;-65
2022/03/29 08:58:46;;;;;;;64.75;27.73;;;;;;;;;;4973959;28;20031;-65
2022/03/29 09:01:11;;;;;;;57.40;26.13;;;;;;;;;;4975509;28;20465;-65
2022/03/29 09:03:37;;;;;;;65.25;27.52;;;;;;;;;;4974498;28;20054;-65
2022/03/29 09:06:08;;;;;;;61.55;26.05;;;;;;;;;;4957986;28;20027;-65
2022/03/29 09:08:44;;;;;;;53.22;24.67;;;;;;;;;;4975640;28;20031;-65
2022/03/29 09:11:10;;;;;;;61.92;26.90;;;;;;;;;;4975292;28;20496;-65
2022/03/29 09:13:35;;;;;;;62.40;27.55;;;;;;;;;;4975813;28;20047;-65
2022/03/29 09:16:02;;;;;;;58.83;25.77;;;;;;;;;;4974862;28;20031;-65
2022/03/29 09:18:28;;;;;;;62.45;27.83;;;;;;;;;;4975520;28;20029;-65
2022/03/29 09:21:17;;;;;;;69.50;26.52;;;;;;;;;;4973480;28;20214;-66
2022/03/29 09:24:02;;;;;;;62.22;25.70;;;;;;;;;;4974792;28;20146;-65
2022/03/29 09:26:30;;;;;;;58.50;24.98;;;;;;;;;;4942123;28;20034;-66
2022/03/29 09:28:56;;;;;;;62.85;25.95;;;;;;;;;;4974719;28;20122;-65
2022/03/29 09:31:23;;;;;;;61.45;26.88;;;;;;;;;;4975278;28;20126;-65
2022/03/29 09:33:49;;;;;;;57.72;24.83;;;;;;;;;;4974387;28;20035;-66
2022/03/29 09:36:20;;;;;;;57.08;25.38;;;;;;;;;;4973726;28;20042;-67
2022/03/29 09:38:47;;;;;;;54.20;24.30;;;;;;;;;;4974650;28;20030;-66
2022/03/29 09:41:28;;;;;;;60.35;25.15;;;;;;;;;;4975038;28;20035;-66
2022/03/29 09:44:10;;;;;;;;;;;;;;;;;;4974788;28;20068;-66
2022/03/29 09:46:59;;;;;;;51.90;23.08;;;;;;;;;;4974805;28;19910;-64
2022/03/29 09:49:25;;;;;;;64.65;25.63;;;;;;;;;;4974564;28;20043;-65
2022/03/29 09:52:27;;;;;;;55.47;25.02;;;;;;;;;;4973954;28;20038;-65
2022/03/29 09:55:10;;;;;;;54.10;22.70;;;;;;;;;;4933086;28;20396;-65
2022/03/29 09:57:45;;;;;;;54.72;24.02;;;;;;;;;;4974332;28;20031;-64
2022/03/29 10:00:19;;;;;;;51.45;24.27;;;;;;;;;;4957810;28;20038;-64
2022/03/29 10:02:46;;;;;;;50.42;23.13;;;;;;;;;;4974250;28;20031;-65
2022/03/29 10:05:12;;;;;;;53.45;23.45;;;;;;;;;;4973298;28;20472;-64
2022/03/29 10:09:25;;;;;;;52.35;23.50;;;;;;;;;;4974462;28;20026;-64
2022/03/29 10:10:47;;;;;;;51.53;24.42;;;;;;;;;;4973305;28;20041;-66
2022/03/29 10:13:14;;;;;;;54.25;23.45;;;;;;;;;;4974214;28;20067;-65
2022/03/29 10:15:41;;;;;;;47.58;21.83;;;;;;;;;;4974466;28;20488;-65
2022/03/29 10:18:07;;;;;;;47.30;21.65;;;;;;;;;;4974020;28;20035;-65
2022/03/29 10:20:33;;;;;;;42.47;21.58;;;;;;;;;;4974329;28;20041;-65
2022/03/29 10:22:59;;;;;;;43.80;20.67;;;;;;;;;;4973684;28;20035;-66
2022/03/29 10:25:26;;;;;;;42.47;20.55;;;;;;;;;;4974284;28;20037;-65
2022/03/29 10:27:56;;;;;;;39.80;19.67;;;;;;;;;;4973521;28;20042;-65
2022/03/29 10:30:39;;;;;;;45.00;21.05;;;;;;;;;;4967819;28;20085;-65
2022/03/29 10:33:16;;;;;;;43.53;20.77;;;;;;;;;;4973460;28;20031;-65
2022/03/29 10:36:01;;;;;;;45.50;21.73;;;;;;;;;;4973717;28;20392;-65
2022/03/29 10:38:48;;;;;;;45.22;21.20;;;;;;;;;;4972630;28;20030;-66
2022/03/29 10:41:25;;;;;;;45.97;21.10;;;;;;;;;;4973923;28;20593;-65
2022/03/29 10:44:19;;;;;;;42.53;21.55;;;;;;;;;;4972027;28;20035;-65
2022/03/29 10:46:46;;;;;;;42.47;21.38;;;;;;;;;;4973159;28;20089;-68
2022/03/29 10:49:28;;;;;;;44.40;22.30;;;;;;;;;;4956260;28;20055;-65
2022/03/29 10:52:21;;;;;;;45.78;21.55;;;;;;;;;;4972955;28;20038;-65
2022/03/29 10:54:47;;;;;;;45.55;21.73;;;;;;;;;;4972662;28;20069;-65
2022/03/29 10:57:31;;;;;;;43.90;21.75;;;;;;;;;;4973586;28;20104;-65
2022/03/29 11:00:11;;;;;;;49.70;22.23;;;;;;;;;;4972764;28;20039;-65
2022/03/29 11:02:38;;;;;;;54.60;23.02;;;;;;;;;;4972475;28;20113;-65
2022/03/29 11:05:05;;;;;;;45.60;21.98;;;;;;;;;;4971696;28;20053;-65
2022/03/29 11:07:59;;;;;;;41.78;20.80;;;;;;;;;;4973348;28;20034;-65
2022/03/29 11:10:44;;;;;;;51.63;23.50;;;;;;;;;;4973514;28;20030;-65
2022/03/29 11:13:34;;;;;;;48.20;22.83;;;;;;;;;;4972514;28;20428;-65
2022/03/29 11:16:20;;;;;;;45.97;21.98;;;;;;;;;;4972837;28;20041;-65
2022/03/29 11:18:46;;;;;;;42.45;21.58;;;;;;;;;;4973038;28;20041;-67
2022/03/29 11:21:28;;;;;;;39.85;20.92;;;;;;;;;;4971976;28;20070;-65
2022/03/29 11:23:58;;;;;;;42.63;21.90;;;;;;;;;;4972591;28;20027;-66
2022/03/29 11:26:23;;;;;;;38.40;19.85;;;;;;;;;;4977110;28;20110;-65
2022/03/29 11:28:52;;;;;;;40.88;21.02;;;;;;;;;;4976400;28;20065;-66
2022/03/29 11:31:18;;;;;;;38.58;20.27;;;;;;;;;;4977200;28;20034;-65
2022/03/29 11:33:49;;;;;;;38.67;19.40;;;;;;;;;;4977010;28;20110;-64
2022/03/29 11:36:16;;;;;;;34.92;19.00;;;;;;;;;;4977570;28;20144;-66
2022/03/29 11:38:43;;;;;;;35.72;18.83;;;;;;;;;;4977244;28;20042;-66
2022/03/29 11:41:23;;;;;;;33.90;18.08;;;;;;;;;;4976614;28;20041;-66
2022/03/29 11:43:58;;;;;;;35.33;18.35;;;;;;;;;;4976875;28;20039;-66
2022/03/29 11:46:24;;;;;;;32.80;18.13;;;;;;;;;;4976736;28;20435;-66
2022/03/29 11:48:51;;;;;;;36.67;18.92;;;;;;;;;;4976267;28;20034;-66
2022/03/29 11:51:17;;;;;;;33.30;18.35;;;;;;;;;;4977126;28;20117;-65
2022/03/29 11:53:43;;;;;;;34.88;18.50;;;;;;;;;;4975901;28;20178;-65
2022/03/29 11:56:13;;;;;;;31.95;17.95;;;;;;;;;;4959884;28;20114;-65
2022/03/29 11:58:50;;;;;;;35.50;18.77;;;;;;;;;;4977717;28;20038;-65
2022/03/29 12:01:29;;;;;;;34.45;18.10;;;;;;;;;;4978931;28;20039;-65
2022/03/29 12:04:03;;;;;;;36.90;18.95;;;;;;;;;;4977085;28;20027;-65
2022/03/29 12:06:30;;;;;;;32.88;18.13;;;;;;;;;;4976726;28;20037;-65
2022/03/29 12:09:01;;;;;;;35.05;19.13;;;;;;;;;;4975793;28;20484;-64
2022/03/29 12:11:30;;;;;;;34.63;17.70;;;;;;;;;;4976792;28;20034;-65
2022/03/29 12:14:05;;;;;;;34.00;17.77;;;;;;;;;;4975642;28;20534;-65
2022/03/29 12:16:36;;;;;;;31.58;17.77;;;;;;;;;;4976275;28;20034;-66
2022/03/29 12:19:06;;;;;;;34.00;18.75;;;;;;;;;;4975905;28;20038;-65
2022/03/29 12:21:31;;;;;;;34.58;18.42;;;;;;;;;;4976443;28;20039;-64
2022/03/29 12:24:00;;;;;;;34.05;18.30;;;;;;;;;;4975471;28;20033;-65
2022/03/29 12:26:26;;;;;;;32.80;18.67;;;;;;;;;;4976289;28;20425;-65
2022/03/29 12:28:51;;;;;;;36.53;19.17;;;;;;;;;;4975300;28;20058;-65
2022/03/29 12:31:19;;;;;;;32.08;18.23;;;;;;;;;;4975969;28;20023;-64
2022/03/29 12:33:45;;;;;;;36.00;18.33;;;;;;;;;;4975878;28;20105;-65
2022/03/29 12:36:15;;;;;;;34.03;18.52;;;;;;;;;;4974838;28;20051;-65
2022/03/29 12:38:46;;;;;;;32.75;18.58;;;;;;;;;;4976214;28;20035;-65
2022/03/29 12:41:13;;;;;;;;;;;;;;;;;;4975797;28;20134;-65
2022/03/29 12:43:40;;;;;;;30.73;17.90;;;;;;;;;;4976271;28;19917;-65
2022/03/29 12:46:11;;;;;;;31.95;17.65;;;;;;;;;;4975394;28;20038;-65
2022/03/29 12:48:41;;;;;;;;;;;;;;;;;;4975889;28;20049;-65
2022/03/29 12:51:08;;;;;;;31.33;17.85;;;;;;;;;;4973947;28;19941;-65
2022/03/29 12:53:36;;;;;;;33.65;18.63;;;;;;;;;;4958689;28;20042;-65
2022/03/29 12:56:09;;;;;;;32.58;19.08;;;;;;;;;;4975165;28;20054;-65
2022/03/29 12:58:36;;;;;;;31.88;18.00;;;;;;;;;;4975551;28;20026;-65
2022/03/29 13:01:04;;;;;;;35.35;18.83;;;;;;;;;;4975366;28;20117;-65
2022/03/29 13:03:37;;;;;;;31.48;17.85;;;;;;;;;;4976075;28;20162;-66
2022/03/29 13:06:03;;;;;;;31.15;18.50;;;;;;;;;;4977706;28;20027;-65
2022/03/29 13:08:29;;;;;;;33.00;18.85;;;;;;;;;;4975165;28;20039;-66
2022/03/29 13:10:54;;;;;;;30.65;18.92;;;;;;;;;;4974863;28;20090;-66
2022/03/29 13:13:24;;;;;;;33.63;18.67;;;;;;;;;;4975152;28;20495;-66
2022/03/29 13:15:59;;;;;;;31.30;18.63;;;;;;;;;;4975535;28;20027;-66
2022/03/29 13:18:47;;;;;;;37.78;20.20;;;;;;;;;;4975373;28;20030;-67
2022/03/29 13:21:24;;;;;;;31.13;19.33;;;;;;;;;;4974919;28;20034;-66
2022/03/29 13:23:54;;;;;;;31.48;18.95;;;;;;;;;;4975403;28;20034;-66
2022/03/29 13:26:23;;;;;;;35.28;19.60;;;;;;;;;;4975521;28;20041;-66
2022/03/29 13:28:50;;;;;;;31.92;19.45;;;;;;;;;;4975135;28;20043;-66
2022/03/29 13:31:17;;;;;;;31.60;19.27;;;;;;;;;;4973272;28;20077;-66
2022/03/29 13:33:44;;;;;;;37.30;19.95;;;;;;;;;;4975189;28;20035;-66
2022/03/29 13:36:13;;;;;;;34.15;19.40;;;;;;;;;;4974512;28;20085;-66
2022/03/29 13:38:40;;;;;;;32.25;19.73;;;;;;;;;;4974380;28;20031;-66
2022/03/29 13:41:06;;;;;;;32.47;20.23;;;;;;;;;;4973144;28;20034;-66
2022/03/29 13:43:33;;;;;;;30.45;19.73;;;;;;;;;;4975330;28;20039;-66
2022/03/29 13:46:02;;;;;;;36.65;19.55;;;;;;;;;;4974049;28;20455;-67
2022/03/29 13:48:31;;;;;;;32.05;19.80;;;;;;;;;;4972379;28;20380;-66
2022/03/29 13:50:57;;;;;;;33.38;19.42;;;;;;;;;;4974267;28;20042;-64
2022/03/29 13:53:24;;;;;;;31.42;19.13;;;;;;;;;;4974411;28;20113;-65
2022/03/29 13:55:50;;;;;;;30.75;18.80;;;;;;;;;;4974732;28;20043;-66
2022/03/29 13:58:15;;;;;;;30.45;19.48;;;;;;;;;;4974024;28;20085;-65
2022/03/29 14:00:42;;;;;;;31.42;19.70;;;;;;;;;;4977062;28;20396;-65
2022/03/29 14:03:08;;;;;;;33.55;19.48;;;;;;;;;;4973954;28;20026;-66
2022/03/29 14:05:37;;;;;;;34.25;19.35;;;;;;;;;;4973051;28;20069;-65
2022/03/29 14:08:04;;;;;;;35.03;19.60;;;;;;;;;;4974140;28;20030;-66
2022/03/29 14:10:30;;;;;;;29.20;18.50;;;;;;;;;;4974478;28;20039;-65
2022/03/29 14:12:57;;;;;;;31.73;19.63;;;;;;;;;;4973700;28;20042;-67
2022/03/29 14:15:22;;;;;;;32.55;19.73;;;;;;;;;;4974235;28;20084;-65
2022/03/29 14:17:48;;;;;;;32.30;19.77;;;;;;;;;;4974266;28;20031;-65
2022/03/29 14:20:14;;;;;;;34.60;19.48;;;;;;;;;;4956403;28;20388;-65
2022/03/29 14:22:41;;;;;;;31.00;19.75;;;;;;;;;;4974414;28;20026;-66
2022/03/29 14:25:07;;;;;;;31.65;20.20;;;;;;;;;;4972364;28;20023;-66
2022/03/29 14:27:33;;;;;;;32.50;20.00;;;;;;;;;;4974273;28;20106;-65
2022/03/29 14:29:59;;;;;;;30.90;19.38;;;;;;;;;;4973456;28;20162;-66
2022/03/29 14:32:25;;;;;;;31.23;19.45;;;;;;;;;;4973736;28;20408;-65
2022/03/29 14:34:51;;;;;;;32.95;20.38;;;;;;;;;;4974128;28;20031;-65